Torm Republican — OYNE2 — position and weather

sailwx.info

Track history (hours):
 
Tides and Currents Weather Stations Pressure Air Temp Water Temp Dewpoint Dewpoint Depression Visibility Wind Speed Wind Dir Waves Ship Positions

Torm Republican

Last reported at 2016-May-05 05:33 UTC. Time now 2016-Jul-25 08:13 UTC.
Position N 01°58' E 102°14'.
Warning: this ship's position is months out of date.

Length 183 m; draft 7 m.

Type: Ship (hazmat cat A). MMSI: 220560000.

Date/timePositionNaut miles runAvg speedWind from/ knotsBaromVisibWave heightAir tempDewpointWater temp
2016-May-05 05:33N 01°58' E 102°14'1615.7
2016-May-05 04:33N 01°51' E 102°28'6314.1
2016-May-05 00:04N 01°17' E 103°22'814.2
2016-May-04 23:31N 01°13' E 103°28'2 2.4
2016-May-04 22:33N 01°11' E 103°30'2 1.5
2016-May-04 21:18N 01°10' E 103°31'1 1.3
2016-May-04 20:33N 01°10' E 103°32'3 2.8
2016-May-04 19:29N 01°12' E 103°35'4 4.0
2016-May-04 18:33N 01°11' E 103°38'4 4.2
2016-May-04 17:33N 01°09' E 103°42'8 7.6
2016-May-04 16:33N 01°11' E 103°49'2 2.2
2016-May-04 15:31N 01°13' E 103°49'0 0.1
2016-May-04 14:28N 01°13' E 103°49'0 0.1
2016-May-04 13:22N 01°13' E 103°49'0 0.0
2016-May-04 12:22N 01°14' E 103°49'0 0.1
2016-May-04 11:28N 01°14' E 103°49'0 0.0
2016-May-04 10:31N 01°14' E 103°49'0 0.0
2016-May-04 09:31N 01°14' E 103°49'0 0.0
2016-May-04 08:28N 01°14' E 103°49'0 0.1
2016-May-04 07:28N 01°13' E 103°49'0 0.1
2016-May-04 06:28N 01°13' E 103°49'0 0.0
2016-May-04 05:28N 01°13' E 103°49'0 0.0
2016-May-04 04:16N 01°13' E 103°49'2 2.6
2016-May-04 03:30N 01°12' E 103°48'0 0.0
2016-May-04 02:27N 01°12' E 103°48'0 0.0
2016-May-04 01:24N 01°12' E 103°48'0 0.0
2016-May-04 00:15N 01°12' E 103°48'0 0.0
2016-May-03 23:18N 01°12' E 103°48'0 0.0
2016-May-03 22:18N 01°12' E 103°48'0 0.0
2016-May-03 21:32N 01°12' E 103°48'0 0.0
2016-May-02 23:30N 01°12' E 103°48'2 2.1
2016-May-02 22:30N 01°14' E 103°49'0 0.1
2016-May-02 21:30N 01°14' E 103°49'0 0.0
2016-May-02 20:30N 01°14' E 103°49'0 0.1
2016-May-02 19:33N 01°14' E 103°49'0 0.0
2016-May-02 18:18N 01°14' E 103°49'0 0.0
2016-May-02 17:30N 01°14' E 103°49'0 0.0
2016-May-02 16:30N 01°14' E 103°49'0 0.0
2016-May-02 15:30N 01°14' E 103°49'0 0.0
2016-May-02 14:33N 01°14' E 103°49'0 0.0
2016-May-02 13:33N 01°14' E 103°49'0 0.1
2016-May-02 12:27N 01°14' E 103°49'0 0.1
2016-May-02 11:24N 01°14' E 103°49'0 0.1
2016-May-02 10:30N 01°14' E 103°49'0 0.0
2016-May-02 09:30N 01°14' E 103°49'0 0.1
2016-May-02 08:33N 01°14' E 103°49'0 0.1
2016-May-02 07:30N 01°14' E 103°49'0 0.1
2016-May-02 06:30N 01°14' E 103°49'0 0.1
2016-May-02 05:33N 01°14' E 103°49'0 0.0
2016-May-02 04:30N 01°14' E 103°49'0 0.0
2016-May-02 03:30N 01°14' E 103°49'0 0.0
2016-May-02 02:30N 01°14' E 103°49'0 0.0
2016-May-02 01:27N 01°14' E 103°49'0 0.1
2016-May-02 00:33N 01°14' E 103°49'0 0.0
2016-May-01 23:33N 01°14' E 103°49'0 0.1
2016-May-01 22:30N 01°14' E 103°49'0 0.1
2016-May-01 21:33N 01°14' E 103°49'0 0.0
2016-May-01 20:30N 01°14' E 103°49'0 0.0
2016-May-01 19:33N 01°14' E 103°49'0 0.0
2016-May-01 18:33N 01°14' E 103°49'0 0.0
2016-May-01 17:30N 01°14' E 103°49'0 0.0
2016-May-01 16:27N 01°14' E 103°49'0 0.0
2016-May-01 15:26N 01°14' E 103°49'0 0.1
2016-May-01 14:29N 01°14' E 103°49'0 0.1
2016-May-01 13:32N 01°14' E 103°49'0 0.1
2016-May-01 12:32N 01°14' E 103°49'0 0.0
2016-May-01 11:32N 01°14' E 103°49'0 0.1
2016-May-01 10:17N 01°14' E 103°49'0 0.0
2016-May-01 09:17N 01°14' E 103°49'0 0.1
2016-May-01 08:32N 01°14' E 103°49'0 0.1
2016-May-01 07:32N 01°14' E 103°49'0 0.1
2016-May-01 06:29N 01°14' E 103°49'0 0.0
2016-May-01 05:32N 01°14' E 103°49'0 0.0
2016-May-01 04:32N 01°14' E 103°49'0 0.0
2016-May-01 03:32N 01°14' E 103°49'0 0.0
2016-May-01 02:29N 01°14' E 103°49'0 0.0
2016-May-01 01:32N 01°14' E 103°49'0 0.0
2016-May-01 00:29N 01°14' E 103°49'0 0.0
2016-Apr-30 23:32N 01°14' E 103°49'0 0.0
2016-Apr-30 22:32N 01°14' E 103°49'0 0.0
2016-Apr-30 21:26N 01°14' E 103°49'0 0.1
2016-Apr-30 20:32N 01°14' E 103°49'0 0.1
2016-Apr-30 19:32N 01°14' E 103°49'0 0.1
2016-Apr-30 18:32N 01°14' E 103°49'0 0.0
2016-Apr-30 17:32N 01°14' E 103°49'0 0.0
2016-Apr-30 16:32N 01°14' E 103°49'0 0.1
2016-Apr-30 15:26N 01°14' E 103°49'0 0.0
2016-Apr-30 14:26N 01°14' E 103°49'0 0.1
2016-Apr-30 13:32N 01°14' E 103°49'0 0.1
2016-Apr-30 12:23N 01°14' E 103°49'0 0.0
2016-Apr-30 11:32N 01°14' E 103°49'0 0.1
2016-Apr-30 10:33N 01°14' E 103°49'1 1.2
2016-Apr-30 09:33N 01°13' E 103°48'10 9.8
2016-Apr-30 08:32N 01°15' E 103°58'  
Track history (hours):
 
Tides and Currents Weather Stations Pressure Air Temp Water Temp Dewpoint Dewpoint Depression Visibility Wind Speed Wind Dir Waves Ship Positions

Torm Republican

Last reported at 2016-May-05 05:33 UTC. Time now 2016-Jul-25 08:13 UTC.
Position N 01°58' E 102°14'.
Warning: this ship's position is months out of date.

Length 183 m; draft 7 m.

Type: Ship (hazmat cat A). MMSI: 220560000.

Date/timePositionNaut miles runAvg speedWind from/ knotsBaromVisibWave heightAir tempDewpointWater temp
2016-May-05 05:33N 01°58' E 102°14'1615.7
2016-May-05 04:33N 01°51' E 102°28'6314.1
2016-May-05 00:04N 01°17' E 103°22'814.2
2016-May-04 23:31N 01°13' E 103°28'2 2.4
2016-May-04 22:33N 01°11' E 103°30'2 1.5
2016-May-04 21:18N 01°10' E 103°31'1 1.3
2016-May-04 20:33N 01°10' E 103°32'3 2.8
2016-May-04 19:29N 01°12' E 103°35'4 4.0
2016-May-04 18:33N 01°11' E 103°38'4 4.2
2016-May-04 17:33N 01°09' E 103°42'8 7.6
2016-May-04 16:33N 01°11' E 103°49'2 2.2
2016-May-04 15:31N 01°13' E 103°49'0 0.1
2016-May-04 14:28N 01°13' E 103°49'0 0.1
2016-May-04 13:22N 01°13' E 103°49'0 0.0
2016-May-04 12:22N 01°14' E 103°49'0 0.1
2016-May-04 11:28N 01°14' E 103°49'0 0.0
2016-May-04 10:31N 01°14' E 103°49'0 0.0
2016-May-04 09:31N 01°14' E 103°49'0 0.0
2016-May-04 08:28N 01°14' E 103°49'0 0.1
2016-May-04 07:28N 01°13' E 103°49'0 0.1
2016-May-04 06:28N 01°13' E 103°49'0 0.0
2016-May-04 05:28N 01°13' E 103°49'0 0.0
2016-May-04 04:16N 01°13' E 103°49'2 2.6
2016-May-04 03:30N 01°12' E 103°48'0 0.0
2016-May-04 02:27N 01°12' E 103°48'0 0.0
2016-May-04 01:24N 01°12' E 103°48'0 0.0
2016-May-04 00:15N 01°12' E 103°48'0 0.0
2016-May-03 23:18N 01°12' E 103°48'0 0.0
2016-May-03 22:18N 01°12' E 103°48'0 0.0
2016-May-03 21:32N 01°12' E 103°48'0 0.0
2016-May-02 23:30N 01°12' E 103°48'2 2.1
2016-May-02 22:30N 01°14' E 103°49'0 0.1
2016-May-02 21:30N 01°14' E 103°49'0 0.0
2016-May-02 20:30N 01°14' E 103°49'0 0.1
2016-May-02 19:33N 01°14' E 103°49'0 0.0
2016-May-02 18:18N 01°14' E 103°49'0 0.0
2016-May-02 17:30N 01°14' E 103°49'0 0.0
2016-May-02 16:30N 01°14' E 103°49'0 0.0
2016-May-02 15:30N 01°14' E 103°49'0 0.0
2016-May-02 14:33N 01°14' E 103°49'0 0.0
2016-May-02 13:33N 01°14' E 103°49'0 0.1
2016-May-02 12:27N 01°14' E 103°49'0 0.1
2016-May-02 11:24N 01°14' E 103°49'0 0.1
2016-May-02 10:30N 01°14' E 103°49'0 0.0
2016-May-02 09:30N 01°14' E 103°49'0 0.1
2016-May-02 08:33N 01°14' E 103°49'0 0.1
2016-May-02 07:30N 01°14' E 103°49'0 0.1
2016-May-02 06:30N 01°14' E 103°49'0 0.1
2016-May-02 05:33N 01°14' E 103°49'0 0.0
2016-May-02 04:30N 01°14' E 103°49'0 0.0
2016-May-02 03:30N 01°14' E 103°49'0 0.0
2016-May-02 02:30N 01°14' E 103°49'0 0.0
2016-May-02 01:27N 01°14' E 103°49'0 0.1
2016-May-02 00:33N 01°14' E 103°49'0 0.0
2016-May-01 23:33N 01°14' E 103°49'0 0.1
2016-May-01 22:30N 01°14' E 103°49'0 0.1
2016-May-01 21:33N 01°14' E 103°49'0 0.0
2016-May-01 20:30N 01°14' E 103°49'0 0.0
2016-May-01 19:33N 01°14' E 103°49'0 0.0
2016-May-01 18:33N 01°14' E 103°49'0 0.0
2016-May-01 17:30N 01°14' E 103°49'0 0.0
2016-May-01 16:27N 01°14' E 103°49'0 0.0
2016-May-01 15:26N 01°14' E 103°49'0 0.1
2016-May-01 14:29N 01°14' E 103°49'0 0.1
2016-May-01 13:32N 01°14' E 103°49'0 0.1
2016-May-01 12:32N 01°14' E 103°49'0 0.0
2016-May-01 11:32N 01°14' E 103°49'0 0.1
2016-May-01 10:17N 01°14' E 103°49'0 0.0
2016-May-01 09:17N 01°14' E 103°49'0 0.1
2016-May-01 08:32N 01°14' E 103°49'0 0.1
2016-May-01 07:32N 01°14' E 103°49'0 0.1
2016-May-01 06:29N 01°14' E 103°49'0 0.0
2016-May-01 05:32N 01°14' E 103°49'0 0.0
2016-May-01 04:32N 01°14' E 103°49'0 0.0
2016-May-01 03:32N 01°14' E 103°49'0 0.0
2016-May-01 02:29N 01°14' E 103°49'0 0.0
2016-May-01 01:32N 01°14' E 103°49'0 0.0
2016-May-01 00:29N 01°14' E 103°49'0 0.0
2016-Apr-30 23:32N 01°14' E 103°49'0 0.0
2016-Apr-30 22:32N 01°14' E 103°49'0 0.0
2016-Apr-30 21:26N 01°14' E 103°49'0 0.1
2016-Apr-30 20:32N 01°14' E 103°49'0 0.1
2016-Apr-30 19:32N 01°14' E 103°49'0 0.1
2016-Apr-30 18:32N 01°14' E 103°49'0 0.0
2016-Apr-30 17:32N 01°14' E 103°49'0 0.0
2016-Apr-30 16:32N 01°14' E 103°49'0 0.1
2016-Apr-30 15:26N 01°14' E 103°49'0 0.0
2016-Apr-30 14:26N 01°14' E 103°49'0 0.1
2016-Apr-30 13:32N 01°14' E 103°49'0 0.1
2016-Apr-30 12:23N 01°14' E 103°49'0 0.0
2016-Apr-30 11:32N 01°14' E 103°49'0 0.1
2016-Apr-30 10:33N 01°14' E 103°49'1 1.2
2016-Apr-30 09:33N 01°13' E 103°48'10 9.8
2016-Apr-30 08:32N 01°15' E 103°58'  

Dump ship's entire track history